sensor_id;sensor_type;location;lat;lon;timestamp;pressure;altitude;pressure_sealevel;temperature;humidity
20115;BME280;10218;42.874;25.320;2023-01-29T00:01:57;97335.44;;;2.71;100.00
20115;BME280;10218;42.874;25.320;2023-01-29T00:04:24;97328.50;;;2.81;100.00
20115;BME280;10218;42.874;25.320;2023-01-29T00:06:51;97331.13;;;2.92;100.00
20115;BME280;10218;42.874;25.320;2023-01-29T00:09:18;97337.72;;;2.65;100.00
20115;BME280;10218;42.874;25.320;2023-01-29T00:11:46;97338.97;;;3.48;100.00
20115;BME280;10218;42.874;25.320;2023-01-29T00:14:13;97340.25;;;2.88;100.00
20115;BME280;10218;42.874;25.320;2023-01-29T00:16:40;97348.41;;;2.63;100.00
20115;BME280;10218;42.874;25.320;2023-01-29T00:19:08;97337.47;;;2.56;100.00
20115;BME280;10218;42.874;25.320;2023-01-29T00:21:36;97336.06;;;2.64;100.00
20115;BME280;10218;42.874;25.320;2023-01-29T00:24:03;97341.66;;;2.48;100.00
20115;BME280;10218;42.874;25.320;2023-01-29T00:26:31;97350.25;;;2.28;100.00
20115;BME280;10218;42.874;25.320;2023-01-29T00:28:58;97360.97;;;2.02;100.00
20115;BME280;10218;42.874;25.320;2023-01-29T00:31:28;97357.34;;;2.49;100.00
20115;BME280;10218;42.874;25.320;2023-01-29T00:33:56;97358.16;;;2.28;100.00
20115;BME280;10218;42.874;25.320;2023-01-29T00:36:25;97357.25;;;2.62;100.00
20115;BME280;10218;42.874;25.320;2023-01-29T00:38:55;97359.81;;;2.29;100.00
20115;BME280;10218;42.874;25.320;2023-01-29T00:41:31;97358.97;;;2.74;100.00
20115;BME280;10218;42.874;25.320;2023-01-29T00:44:17;97355.47;;;2.96;100.00
20115;BME280;10218;42.874;25.320;2023-01-29T00:47:04;97350.06;;;2.75;100.00
20115;BME280;10218;42.874;25.320;2023-01-29T00:49:51;97352.59;;;2.77;100.00
20115;BME280;10218;42.874;25.320;2023-01-29T00:52:19;97357.84;;;2.66;100.00
20115;BME280;10218;42.874;25.320;2023-01-29T00:54:57;97351.00;;;2.41;100.00
20115;BME280;10218;42.874;25.320;2023-01-29T00:57:27;97356.13;;;2.31;100.00
20115;BME280;10218;42.874;25.320;2023-01-29T00:59:55;97344.91;;;2.51;100.00
20115;BME280;10218;42.874;25.320;2023-01-29T01:02:24;97350.16;;;2.40;100.00
20115;BME280;10218;42.874;25.320;2023-01-29T01:05:12;97357.72;;;2.56;100.00
20115;BME280;10218;42.874;25.320;2023-01-29T01:07:53;97360.12;;;2.70;100.00
20115;BME280;10218;42.874;25.320;2023-01-29T01:10:30;97355.97;;;2.79;100.00
20115;BME280;10218;42.874;25.320;2023-01-29T01:13:03;97356.91;;;2.78;100.00
20115;BME280;10218;42.874;25.320;2023-01-29T01:15:37;97358.47;;;2.58;100.00
20115;BME280;10218;42.874;25.320;2023-01-29T01:18:04;97352.59;;;2.77;100.00
20115;BME280;10218;42.874;25.320;2023-01-29T01:20:33;97348.41;;;2.96;100.00
20115;BME280;10218;42.874;25.320;2023-01-29T01:23:01;97351.38;;;3.68;100.00
20115;BME280;10218;42.874;25.320;2023-01-29T01:25:28;97351.63;;;3.11;100.00
20115;BME280;10218;42.874;25.320;2023-01-29T01:27:57;97360.53;;;2.99;100.00
20115;BME280;10218;42.874;25.320;2023-01-29T01:30:25;97354.72;;;3.27;100.00
20115;BME280;10218;42.874;25.320;2023-01-29T01:32:54;97355.22;;;3.21;100.00
20115;BME280;10218;42.874;25.320;2023-01-29T01:35:21;97361.34;;;3.11;100.00
20115;BME280;10218;42.874;25.320;2023-01-29T01:37:48;97354.16;;;3.13;100.00
20115;BME280;10218;42.874;25.320;2023-01-29T01:40:20;97359.16;;;3.27;100.00
20115;BME280;10218;42.874;25.320;2023-01-29T01:42:51;97360.38;;;3.23;100.00
20115;BME280;10218;42.874;25.320;2023-01-29T01:45:31;97361.59;;;2.96;100.00
20115;BME280;10218;42.874;25.320;2023-01-29T01:48:09;97362.16;;;3.33;100.00
20115;BME280;10218;42.874;25.320;2023-01-29T01:53:22;97363.97;;;3.22;100.00
20115;BME280;10218;42.874;25.320;2023-01-29T01:56:01;97355.81;;;2.80;100.00
20115;BME280;10218;42.874;25.320;2023-01-29T01:58:35;97370.22;;;2.87;100.00
20115;BME280;10218;42.874;25.320;2023-01-29T02:01:06;97369.75;;;2.71;100.00
20115;BME280;10218;42.874;25.320;2023-01-29T02:03:43;97369.97;;;2.57;100.00
20115;BME280;10218;42.874;25.320;2023-01-29T02:06:30;97363.03;;;2.67;100.00
20115;BME280;10218;42.874;25.320;2023-01-29T02:09:22;97366.75;;;2.76;100.00
20115;BME280;10218;42.874;25.320;2023-01-29T02:12:07;97363.81;;;2.45;100.00
20115;BME280;10218;42.874;25.320;2023-01-29T02:14:35;97359.53;;;3.00;100.00
20115;BME280;10218;42.874;25.320;2023-01-29T02:17:07;97363.37;;;3.07;100.00
20115;BME280;10218;42.874;25.320;2023-01-29T02:25:14;97366.63;;;3.11;100.00
20115;BME280;10218;42.874;25.320;2023-01-29T02:28:04;97364.44;;;3.38;100.00
20115;BME280;10218;42.874;25.320;2023-01-29T02:38:49;97370.94;;;3.23;100.00
20115;BME280;10218;42.874;25.320;2023-01-29T02:46:39;97373.34;;;2.81;100.00
20115;BME280;10218;42.874;25.320;2023-01-29T02:52:17;97370.22;;;2.87;100.00
20115;BME280;10218;42.874;25.320;2023-01-29T02:55:06;97378.13;;;3.21;100.00
20115;BME280;10218;42.874;25.320;2023-01-29T02:57:40;97373.59;;;2.89;100.00
20115;BME280;10218;42.874;25.320;2023-01-29T03:02:48;97373.13;;;2.84;100.00
20115;BME280;10218;42.874;25.320;2023-01-29T03:05:22;97374.66;;;2.98;100.00
20115;BME280;10218;42.874;25.320;2023-01-29T03:07:55;97363.41;;;2.74;100.00
20115;BME280;10218;42.874;25.320;2023-01-29T03:10:36;97375.00;;;3.16;100.00
20115;BME280;10218;42.874;25.320;2023-01-29T03:13:16;97382.28;;;3.45;100.00
20115;BME280;10218;42.874;25.320;2023-01-29T03:15:48;97375.06;;;3.59;100.00
20115;BME280;10218;42.874;25.320;2023-01-29T03:18:23;97368.78;;;3.17;100.00
20115;BME280;10218;42.874;25.320;2023-01-29T03:21:03;97380.53;;;3.78;100.00
20115;BME280;10218;42.874;25.320;2023-01-29T03:23:54;97377.22;;;3.97;100.00
20115;BME280;10218;42.874;25.320;2023-01-29T03:26:42;97384.34;;;3.42;100.00
20115;BME280;10218;42.874;25.320;2023-01-29T03:29:33;97380.09;;;3.62;100.00
20115;BME280;10218;42.874;25.320;2023-01-29T03:32:22;97381.88;;;3.72;100.00
20115;BME280;10218;42.874;25.320;2023-01-29T03:34:57;97386.75;;;3.88;100.00
20115;BME280;10218;42.874;25.320;2023-01-29T03:37:41;97377.91;;;3.24;100.00
20115;BME280;10218;42.874;25.320;2023-01-29T03:40:11;97392.84;;;3.45;100.00
20115;BME280;10218;42.874;25.320;2023-01-29T03:56:54;97387.84;;;3.20;100.00
20115;BME280;10218;42.874;25.320;2023-01-29T03:59:05;97391.31;;;3.32;100.00
20115;BME280;10218;42.874;25.320;2023-01-29T04:01:43;97385.94;;;3.22;100.00
20115;BME280;10218;42.874;25.320;2023-01-29T04:06:48;97385.59;;;2.93;100.00
20115;BME280;10218;42.874;25.320;2023-01-29T04:09:31;97389.78;;;3.18;100.00
20115;BME280;10218;42.874;25.320;2023-01-29T04:12:04;97394.22;;;3.40;100.00
20115;BME280;10218;42.874;25.320;2023-01-29T04:14:37;97391.47;;;2.97;100.00
20115;BME280;10218;42.874;25.320;2023-01-29T04:17:11;97395.78;;;2.98;100.00
20115;BME280;10218;42.874;25.320;2023-01-29T04:19:41;97399.28;;;2.98;100.00
20115;BME280;10218;42.874;25.320;2023-01-29T04:22:14;97390.62;;;2.96;100.00
20115;BME280;10218;42.874;25.320;2023-01-29T04:24:43;97406.00;;;3.25;100.00
20115;BME280;10218;42.874;25.320;2023-01-29T04:27:20;97402.34;;;3.37;100.00
20115;BME280;10218;42.874;25.320;2023-01-29T04:33:15;97405.25;;;2.89;100.00
20115;BME280;10218;42.874;25.320;2023-01-29T04:41:32;97407.91;;;3.23;100.00
20115;BME280;10218;42.874;25.320;2023-01-29T04:44:15;97404.78;;;3.07;100.00
20115;BME280;10218;42.874;25.320;2023-01-29T04:49:42;97408.87;;;2.99;100.00
20115;BME280;10218;42.874;25.320;2023-01-29T04:52:19;97415.66;;;3.58;100.00
20115;BME280;10218;42.874;25.320;2023-01-29T05:00:08;97424.09;;;3.07;100.00
20115;BME280;10218;42.874;25.320;2023-01-29T05:02:40;97421.34;;;3.20;100.00
20115;BME280;10218;42.874;25.320;2023-01-29T05:05:09;97430.09;;;3.42;100.00
20115;BME280;10218;42.874;25.320;2023-01-29T05:07:38;97427.81;;;3.16;100.00
20115;BME280;10218;42.874;25.320;2023-01-29T05:10:08;97433.81;;;3.29;100.00
20115;BME280;10218;42.874;25.320;2023-01-29T05:12:37;97436.06;;;3.00;100.00
20115;BME280;10218;42.874;25.320;2023-01-29T05:15:10;97440.16;;;2.82;100.00
20115;BME280;10218;42.874;25.320;2023-01-29T05:17:39;97437.41;;;3.06;100.00
20115;BME280;10218;42.874;25.320;2023-01-29T05:20:09;97435.03;;;3.25;100.00
20115;BME280;10218;42.874;25.320;2023-01-29T05:22:38;97438.59;;;3.46;100.00
20115;BME280;10218;42.874;25.320;2023-01-29T05:25:28;97443.41;;;2.96;100.00
20115;BME280;10218;42.874;25.320;2023-01-29T05:27:56;97428.75;;;2.81;100.00
20115;BME280;10218;42.874;25.320;2023-01-29T05:30:48;97441.59;;;2.97;100.00
20115;BME280;10218;42.874;25.320;2023-01-29T05:33:27;97445.81;;;3.11;100.00
20115;BME280;10218;42.874;25.320;2023-01-29T05:35:58;97443.53;;;3.06;100.00
20115;BME280;10218;42.874;25.320;2023-01-29T05:38:25;97444.75;;;3.24;100.00
20115;BME280;10218;42.874;25.320;2023-01-29T05:40:53;97452.06;;;2.98;100.00
20115;BME280;10218;42.874;25.320;2023-01-29T05:43:23;97444.38;;;3.29;100.00
20115;BME280;10218;42.874;25.320;2023-01-29T05:45:56;97451.09;;;3.11;100.00
20115;BME280;10218;42.874;25.320;2023-01-29T05:48:28;97455.53;;;3.32;100.00
20115;BME280;10218;42.874;25.320;2023-01-29T05:51:00;97460.22;;;3.29;100.00
20115;BME280;10218;42.874;25.320;2023-01-29T05:53:28;97468.03;;;3.19;100.00
20115;BME280;10218;42.874;25.320;2023-01-29T05:55:56;97471.00;;;3.26;100.00
20115;BME280;10218;42.874;25.320;2023-01-29T05:58:26;97472.94;;;3.13;100.00
20115;BME280;10218;42.874;25.320;2023-01-29T06:00:53;97478.31;;;2.89;100.00
20115;BME280;10218;42.874;25.320;2023-01-29T06:03:21;97479.66;;;3.28;100.00
20115;BME280;10218;42.874;25.320;2023-01-29T06:05:48;97482.28;;;3.17;100.00
20115;BME280;10218;42.874;25.320;2023-01-29T06:08:15;97482.97;;;2.85;100.00
20115;BME280;10218;42.874;25.320;2023-01-29T06:10:43;97489.53;;;2.69;100.00
20115;BME280;10218;42.874;25.320;2023-01-29T06:13:10;97499.00;;;3.28;100.00
20115;BME280;10218;42.874;25.320;2023-01-29T06:15:39;97496.19;;;2.96;100.00
20115;BME280;10218;42.874;25.320;2023-01-29T06:18:07;97490.34;;;3.26;100.00
20115;BME280;10218;42.874;25.320;2023-01-29T06:20:34;97486.88;;;3.48;100.00
20115;BME280;10218;42.874;25.320;2023-01-29T06:23:01;97493.09;;;3.58;100.00
20115;BME280;10218;42.874;25.320;2023-01-29T06:25:28;97493.69;;;3.62;100.00
20115;BME280;10218;42.874;25.320;2023-01-29T06:27:55;97492.00;;;3.61;100.00
20115;BME280;10218;42.874;25.320;2023-01-29T06:30:25;97502.22;;;3.32;100.00
20115;BME280;10218;42.874;25.320;2023-01-29T06:32:56;97496.72;;;3.68;100.00
20115;BME280;10218;42.874;25.320;2023-01-29T06:35:27;97506.06;;;3.72;100.00
20115;BME280;10218;42.874;25.320;2023-01-29T06:37:55;97508.19;;;3.00;100.00
20115;BME280;10218;42.874;25.320;2023-01-29T06:40:22;97504.50;;;3.14;100.00
20115;BME280;10218;42.874;25.320;2023-01-29T06:42:49;97498.63;;;3.66;100.00
20115;BME280;10218;42.874;25.320;2023-01-29T06:45:17;97517.34;;;3.19;100.00
20115;BME280;10218;42.874;25.320;2023-01-29T06:47:44;97507.88;;;3.72;100.00
20115;BME280;10218;42.874;25.320;2023-01-29T06:50:11;97520.69;;;3.10;100.00
20115;BME280;10218;42.874;25.320;2023-01-29T06:52:39;97521.66;;;3.31;100.00
20115;BME280;10218;42.874;25.320;2023-01-29T06:55:06;97528.41;;;3.46;100.00
20115;BME280;10218;42.874;25.320;2023-01-29T06:57:34;97519.28;;;3.39;100.00
20115;BME280;10218;42.874;25.320;2023-01-29T07:00:02;97523.13;;;3.35;100.00
20115;BME280;10218;42.874;25.320;2023-01-29T07:02:29;97528.41;;;3.35;100.00
20115;BME280;10218;42.874;25.320;2023-01-29T07:04:56;97533.88;;;3.21;100.00
20115;BME280;10218;42.874;25.320;2023-01-29T07:07:23;97538.00;;;3.47;100.00
20115;BME280;10218;42.874;25.320;2023-01-29T07:09:50;97536.81;;;3.40;100.00
20115;BME280;10218;42.874;25.320;2023-01-29T07:12:17;97550.25;;;2.91;100.00
20115;BME280;10218;42.874;25.320;2023-01-29T07:14:45;97543.28;;;3.25;100.00
20115;BME280;10218;42.874;25.320;2023-01-29T07:17:12;97539.19;;;3.32;100.00
20115;BME280;10218;42.874;25.320;2023-01-29T07:19:40;97552.41;;;3.43;100.00
20115;BME280;10218;42.874;25.320;2023-01-29T07:22:07;97543.78;;;3.30;100.00
20115;BME280;10218;42.874;25.320;2023-01-29T07:24:34;97552.16;;;3.46;100.00
20115;BME280;10218;42.874;25.320;2023-01-29T07:27:02;97546.44;;;3.63;100.00
20115;BME280;10218;42.874;25.320;2023-01-29T07:29:29;97545.28;;;3.21;100.00
20115;BME280;10218;42.874;25.320;2023-01-29T07:31:56;97543.38;;;3.23;100.00
20115;BME280;10218;42.874;25.320;2023-01-29T07:34:23;97553.03;;;3.80;100.00
20115;BME280;10218;42.874;25.320;2023-01-29T07:36:54;97548.44;;;3.71;100.00
20115;BME280;10218;42.874;25.320;2023-01-29T07:39:22;97547.59;;;3.37;100.00
20115;BME280;10218;42.874;25.320;2023-01-29T07:41:49;97556.22;;;3.17;100.00
20115;BME280;10218;42.874;25.320;2023-01-29T07:44:20;97555.41;;;3.38;100.00
20115;BME280;10218;42.874;25.320;2023-01-29T07:46:47;97553.84;;;3.92;100.00
20115;BME280;10218;42.874;25.320;2023-01-29T07:49:15;97559.12;;;4.14;100.00
20115;BME280;10218;42.874;25.320;2023-01-29T07:51:42;97542.69;;;4.10;100.00
20115;BME280;10218;42.874;25.320;2023-01-29T07:54:09;97563.47;;;3.93;100.00
20115;BME280;10218;42.874;25.320;2023-01-29T07:56:36;97559.38;;;4.00;100.00
20115;BME280;10218;42.874;25.320;2023-01-29T07:59:03;97557.81;;;3.97;100.00
20115;BME280;10218;42.874;25.320;2023-01-29T08:01:30;97576.69;;;3.48;100.00
20115;BME280;10218;42.874;25.320;2023-01-29T08:03:57;97575.72;;;3.71;100.00
20115;BME280;10218;42.874;25.320;2023-01-29T08:06:24;97580.06;;;3.50;100.00
20115;BME280;10218;42.874;25.320;2023-01-29T08:08:51;97587.94;;;4.28;100.00
20115;BME280;10218;42.874;25.320;2023-01-29T08:11:19;97592.28;;;4.07;100.00
20115;BME280;10218;42.874;25.320;2023-01-29T08:13:46;97590.41;;;3.75;100.00
20115;BME280;10218;42.874;25.320;2023-01-29T08:16:13;97580.06;;;3.95;100.00
20115;BME280;10218;42.874;25.320;2023-01-29T08:18:41;97592.06;;;4.10;100.00
20115;BME280;10218;42.874;25.320;2023-01-29T08:21:12;97594.91;;;3.40;100.00
20115;BME280;10218;42.874;25.320;2023-01-29T08:23:39;97591.44;;;4.17;100.00
20115;BME280;10218;42.874;25.320;2023-01-29T08:26:07;97593.97;;;3.63;100.00
20115;BME280;10218;42.874;25.320;2023-01-29T08:28:35;97587.25;;;3.93;100.00
20115;BME280;10218;42.874;25.320;2023-01-29T08:31:12;97593.03;;;4.09;100.00
20115;BME280;10218;42.874;25.320;2023-01-29T08:33:40;97601.69;;;4.11;100.00
20115;BME280;10218;42.874;25.320;2023-01-29T08:36:08;97590.84;;;4.36;100.00
20115;BME280;10218;42.874;25.320;2023-01-29T08:38:35;97595.59;;;4.53;100.00
20115;BME280;10218;42.874;25.320;2023-01-29T08:41:02;97599.25;;;4.08;100.00
20115;BME280;10218;42.874;25.320;2023-01-29T08:43:30;97594.13;;;3.95;100.00
20115;BME280;10218;42.874;25.320;2023-01-29T08:45:57;97605.53;;;3.84;100.00
20115;BME280;10218;42.874;25.320;2023-01-29T08:48:24;97604.66;;;3.62;100.00
20115;BME280;10218;42.874;25.320;2023-01-29T08:50:52;97605.06;;;3.79;100.00
20115;BME280;10218;42.874;25.320;2023-01-29T08:53:19;97612.62;;;4.06;100.00
20115;BME280;10218;42.874;25.320;2023-01-29T08:55:51;97607.94;;;3.99;100.00
20115;BME280;10218;42.874;25.320;2023-01-29T08:58:18;97616.09;;;4.18;100.00
20115;BME280;10218;42.874;25.320;2023-01-29T09:00:46;97616.28;;;4.48;100.00
20115;BME280;10218;42.874;25.320;2023-01-29T09:03:13;97613.22;;;3.99;100.00
20115;BME280;10218;42.874;25.320;2023-01-29T09:05:40;97609.03;;;3.96;100.00
20115;BME280;10218;42.874;25.320;2023-01-29T09:08:08;97608.25;;;4.39;100.00
20115;BME280;10218;42.874;25.320;2023-01-29T09:10:35;97613.88;;;4.88;100.00
20115;BME280;10218;42.874;25.320;2023-01-29T09:13:03;97615.37;;;4.16;100.00
20115;BME280;10218;42.874;25.320;2023-01-29T09:15:30;97607.56;;;3.92;100.00
20115;BME280;10218;42.874;25.320;2023-01-29T09:17:57;97612.97;;;4.24;100.00
20115;BME280;10218;42.874;25.320;2023-01-29T09:20:24;97616.22;;;4.16;100.00
20115;BME280;10218;42.874;25.320;2023-01-29T09:22:51;97605.25;;;4.32;100.00
20115;BME280;10218;42.874;25.320;2023-01-29T09:25:20;97605.75;;;4.04;100.00
20115;BME280;10218;42.874;25.320;2023-01-29T09:27:48;97605.75;;;4.15;100.00
20115;BME280;10218;42.874;25.320;2023-01-29T09:30:15;97592.06;;;3.65;100.00
20115;BME280;10218;42.874;25.320;2023-01-29T09:32:43;97610.75;;;3.51;100.00
20115;BME280;10218;42.874;25.320;2023-01-29T09:35:19;97605.38;;;4.42;100.00
20115;BME280;10218;42.874;25.320;2023-01-29T09:37:47;97599.06;;;4.97;100.00
20115;BME280;10218;42.874;25.320;2023-01-29T09:43:39;97603.00;;;4.16;100.00
20115;BME280;10218;42.874;25.320;2023-01-29T09:46:19;97597.94;;;4.24;100.00
20115;BME280;10218;42.874;25.320;2023-01-29T09:49:00;97598.09;;;3.90;100.00
20115;BME280;10218;42.874;25.320;2023-01-29T09:51:34;97589.75;;;4.27;100.00
20115;BME280;10218;42.874;25.320;2023-01-29T09:56:37;97586.03;;;4.08;100.00
20115;BME280;10218;42.874;25.320;2023-01-29T09:59:04;97594.94;;;4.07;100.00
20115;BME280;10218;42.874;25.320;2023-01-29T10:04:54;97581.94;;;5.01;100.00
20115;BME280;10218;42.874;25.320;2023-01-29T10:10:50;97587.47;;;4.12;100.00
20115;BME280;10218;42.874;25.320;2023-01-29T10:24:46;97571.13;;;4.18;100.00
20115;BME280;10218;42.874;25.320;2023-01-29T10:27:16;97569.16;;;4.42;100.00
20115;BME280;10218;42.874;25.320;2023-01-29T10:29:44;97568.13;;;4.22;100.00
20115;BME280;10218;42.874;25.320;2023-01-29T10:32:16;97567.00;;;4.79;100.00
20115;BME280;10218;42.874;25.320;2023-01-29T10:37:21;97570.84;;;4.43;100.00
20115;BME280;10218;42.874;25.320;2023-01-29T10:39:50;97569.97;;;4.00;100.00
20115;BME280;10218;42.874;25.320;2023-01-29T10:42:39;97569.00;;;4.01;100.00
20115;BME280;10218;42.874;25.320;2023-01-29T10:50:39;97560.13;;;3.79;100.00
20115;BME280;10218;42.874;25.320;2023-01-29T10:56:28;97549.81;;;4.42;100.00
20115;BME280;10218;42.874;25.320;2023-01-29T11:01:44;97541.31;;;4.91;100.00
20115;BME280;10218;42.874;25.320;2023-01-29T11:04:12;97543.25;;;4.25;100.00
20115;BME280;10218;42.874;25.320;2023-01-29T11:06:40;97534.06;;;3.75;100.00
20115;BME280;10218;42.874;25.320;2023-01-29T11:12:08;97537.38;;;4.21;100.00
20115;BME280;10218;42.874;25.320;2023-01-29T11:14:47;97537.00;;;4.15;100.00
20115;BME280;10218;42.874;25.320;2023-01-29T11:17:19;97534.81;;;4.31;100.00
20115;BME280;10218;42.874;25.320;2023-01-29T11:19:48;97528.41;;;3.79;100.00
20115;BME280;10218;42.874;25.320;2023-01-29T11:22:22;97536.06;;;4.48;100.00
20115;BME280;10218;42.874;25.320;2023-01-29T11:27:51;97522.84;;;4.05;100.00
20115;BME280;10218;42.874;25.320;2023-01-29T11:33:06;97517.97;;;4.32;100.00
20115;BME280;10218;42.874;25.320;2023-01-29T11:35:35;97518.06;;;4.94;100.00
20115;BME280;10218;42.874;25.320;2023-01-29T11:38:25;97514.38;;;4.22;100.00
20115;BME280;10218;42.874;25.320;2023-01-29T11:41:05;97509.22;;;4.32;100.00
20115;BME280;10218;42.874;25.320;2023-01-29T11:43:32;97496.03;;;4.20;100.00
20115;BME280;10218;42.874;25.320;2023-01-29T11:46:11;97498.88;;;4.60;100.00
20115;BME280;10218;42.874;25.320;2023-01-29T11:48:50;97505.03;;;4.82;100.00
20115;BME280;10218;42.874;25.320;2023-01-29T11:51:28;97508.34;;;4.63;100.00
20115;BME280;10218;42.874;25.320;2023-01-29T11:53:57;97505.31;;;4.04;100.00
20115;BME280;10218;42.874;25.320;2023-01-29T11:56:33;97503.84;;;4.11;100.00
20115;BME280;10218;42.874;25.320;2023-01-29T11:59:01;97502.31;;;4.40;100.00
20115;BME280;10218;42.874;25.320;2023-01-29T12:01:37;97496.69;;;3.91;100.00
20115;BME280;10218;42.874;25.320;2023-01-29T12:04:22;97509.53;;;4.06;100.00
20115;BME280;10218;42.874;25.320;2023-01-29T12:06:51;97502.00;;;3.79;100.00
20115;BME280;10218;42.874;25.320;2023-01-29T12:09:22;97503.41;;;3.83;100.00
20115;BME280;10218;42.874;25.320;2023-01-29T12:11:50;97504.09;;;4.08;100.00
20115;BME280;10218;42.874;25.320;2023-01-29T12:14:32;97507.06;;;4.25;100.00
20115;BME280;10218;42.874;25.320;2023-01-29T12:17:23;97498.88;;;3.74;100.00
20115;BME280;10218;42.874;25.320;2023-01-29T12:19:58;97500.44;;;3.43;100.00
20115;BME280;10218;42.874;25.320;2023-01-29T12:25:34;97503.84;;;4.11;100.00
20115;BME280;10218;42.874;25.320;2023-01-29T12:33:26;97508.16;;;4.12;100.00
20115;BME280;10218;42.874;25.320;2023-01-29T12:36:13;97511.09;;;4.41;100.00
20115;BME280;10218;42.874;25.320;2023-01-29T12:38:44;97502.88;;;4.12;100.00
20115;BME280;10218;42.874;25.320;2023-01-29T12:41:24;97507.03;;;4.89;100.00
20115;BME280;10218;42.874;25.320;2023-01-29T12:46:43;97510.78;;;4.23;100.00
20115;BME280;10218;42.874;25.320;2023-01-29T12:49:22;97510.84;;;4.01;100.00
20115;BME280;10218;42.874;25.320;2023-01-29T12:55:01;97505.47;;;4.66;100.00
20115;BME280;10218;42.874;25.320;2023-01-29T13:00:23;97504.94;;;4.51;100.00
20115;BME280;10218;42.874;25.320;2023-01-29T13:02:59;97505.94;;;4.39;100.00
20115;BME280;10218;42.874;25.320;2023-01-29T13:05:43;97509.00;;;4.12;100.00
20115;BME280;10218;42.874;25.320;2023-01-29T13:08:20;97510.94;;;4.21;100.00
20115;BME280;10218;42.874;25.320;2023-01-29T13:10:51;97518.25;;;4.18;100.00
20115;BME280;10218;42.874;25.320;2023-01-29T13:13:35;97514.91;;;4.05;100.00
20115;BME280;10218;42.874;25.320;2023-01-29T13:16:09;97514.19;;;4.14;100.00
20115;BME280;10218;42.874;25.320;2023-01-29T13:18:57;97518.53;;;3.93;100.00
20115;BME280;10218;42.874;25.320;2023-01-29T13:21:35;97519.16;;;4.39;100.00
20115;BME280;10218;42.874;25.320;2023-01-29T13:24:10;97517.34;;;4.40;100.00
20115;BME280;10218;42.874;25.320;2023-01-29T13:26:39;97520.25;;;4.37;100.00
20115;BME280;10218;42.874;25.320;2023-01-29T13:29:25;97513.03;;;4.39;100.00
20115;BME280;10218;42.874;25.320;2023-01-29T13:31:55;97529.09;;;3.93;100.00
20115;BME280;10218;42.874;25.320;2023-01-29T13:34:27;97524.19;;;3.99;100.00
20115;BME280;10218;42.874;25.320;2023-01-29T13:37:01;97527.38;;;4.25;100.00
20115;BME280;10218;42.874;25.320;2023-01-29T13:39:34;97521.81;;;4.28;100.00
20115;BME280;10218;42.874;25.320;2023-01-29T13:44:47;97521.53;;;4.10;100.00
20115;BME280;10218;42.874;25.320;2023-01-29T13:47:30;97530.56;;;4.40;100.00
20115;BME280;10218;42.874;25.320;2023-01-29T13:52:39;97524.56;;;4.69;100.00
20115;BME280;10218;42.874;25.320;2023-01-29T14:05:41;97526.91;;;4.20;100.00
20115;BME280;10218;42.874;25.320;2023-01-29T14:10:36;97535.31;;;4.25;100.00
20115;BME280;10218;42.874;25.320;2023-01-29T14:15:33;97540.63;;;3.92;100.00
20115;BME280;10218;42.874;25.320;2023-01-29T14:20:38;97537.94;;;4.36;100.00
20115;BME280;10218;42.874;25.320;2023-01-29T14:26:25;97528.38;;;4.02;100.00
20115;BME280;10218;42.874;25.320;2023-01-29T14:31:56;97536.28;;;4.24;100.00
20115;BME280;10218;42.874;25.320;2023-01-29T14:34:28;97535.59;;;3.66;100.00
20115;BME280;10218;42.874;25.320;2023-01-29T14:39:43;97541.63;;;3.79;100.00
20115;BME280;10218;42.874;25.320;2023-01-29T14:42:24;97541.66;;;4.34;100.00
20115;BME280;10218;42.874;25.320;2023-01-29T14:56:13;97546.28;;;3.87;100.00
20115;BME280;10218;42.874;25.320;2023-01-29T14:58:52;97549.78;;;3.87;100.00
20115;BME280;10218;42.874;25.320;2023-01-29T15:01:25;97547.28;;;3.64;100.00
20115;BME280;10218;42.874;25.320;2023-01-29T15:04:02;97548.91;;;4.20;100.00
20115;BME280;10218;42.874;25.320;2023-01-29T15:06:51;97556.94;;;4.30;100.00
20115;BME280;10218;42.874;25.320;2023-01-29T15:09:36;97544.47;;;4.21;100.00
20115;BME280;10218;42.874;25.320;2023-01-29T15:14:59;97569.91;;;4.22;100.00
20115;BME280;10218;42.874;25.320;2023-01-29T15:17:54;97563.13;;;3.75;100.00
20115;BME280;10218;42.874;25.320;2023-01-29T15:20:36;97569.97;;;3.77;100.00
20115;BME280;10218;42.874;25.320;2023-01-29T15:23:23;97570.16;;;3.41;100.00
20115;BME280;10218;42.874;25.320;2023-01-29T15:25:54;97567.19;;;3.68;100.00
20115;BME280;10218;42.874;25.320;2023-01-29T15:28:22;97573.81;;;3.62;100.00
20115;BME280;10218;42.874;25.320;2023-01-29T15:30:56;97555.56;;;3.70;100.00
20115;BME280;10218;42.874;25.320;2023-01-29T15:33:26;97560.81;;;3.48;100.00
20115;BME280;10218;42.874;25.320;2023-01-29T15:36:00;97566.34;;;3.34;100.00
20115;BME280;10218;42.874;25.320;2023-01-29T15:38:33;97572.97;;;4.06;100.00
20115;BME280;10218;42.874;25.320;2023-01-29T15:41:16;97570.66;;;4.02;100.00
20115;BME280;10218;42.874;25.320;2023-01-29T15:43:48;97572.84;;;3.74;100.00
20115;BME280;10218;42.874;25.320;2023-01-29T15:46:39;97577.28;;;3.74;100.00
20115;BME280;10218;42.874;25.320;2023-01-29T15:49:13;97579.81;;;3.75;100.00
20115;BME280;10218;42.874;25.320;2023-01-29T15:51:42;97585.09;;;4.20;100.00
20115;BME280;10218;42.874;25.320;2023-01-29T15:54:13;97583.19;;;4.11;100.00
20115;BME280;10218;42.874;25.320;2023-01-29T15:56:50;97574.28;;;3.56;100.00
20115;BME280;10218;42.874;25.320;2023-01-29T15:59:22;97584.63;;;4.04;100.00
20115;BME280;10218;42.874;25.320;2023-01-29T16:01:51;97572.97;;;3.95;100.00
20115;BME280;10218;42.874;25.320;2023-01-29T16:04:26;97585.06;;;4.31;100.00
20115;BME280;10218;42.874;25.320;2023-01-29T16:06:55;97583.06;;;3.90;100.00
20115;BME280;10218;42.874;25.320;2023-01-29T16:09:25;97580.50;;;4.22;100.00